createdAt,value
2022-08-03T00:02:20.386Z,2.80
2022-08-03T00:04:48.778Z,2.20
2022-08-03T00:07:17.233Z,2.13
2022-08-03T00:09:45.555Z,2.05
2022-08-03T00:12:14.176Z,2.03
2022-08-03T00:14:42.665Z,2.10
2022-08-03T00:17:14.158Z,2.28
2022-08-03T00:19:42.325Z,2.13
2022-08-03T00:22:10.402Z,2.35
2022-08-03T00:24:38.665Z,2.22
2022-08-03T00:27:06.831Z,2.28
2022-08-03T00:29:59.524Z,2.67
2022-08-03T00:32:26.636Z,2.25
2022-08-03T00:34:57.617Z,2.38
2022-08-03T00:37:41.527Z,3.45
2022-08-03T00:40:13.676Z,2.42
2022-08-03T00:42:50.660Z,2.60
2022-08-03T00:45:19.542Z,2.25
2022-08-03T00:47:49.261Z,2.65
2022-08-03T00:50:18.958Z,2.55
2022-08-03T00:52:48.411Z,2.20
2022-08-03T00:55:17.140Z,2.20
2022-08-03T00:57:45.508Z,2.50
2022-08-03T01:01:10.049Z,2.30
2022-08-03T01:03:39.970Z,2.38
2022-08-03T01:06:16.290Z,2.60
2022-08-03T01:08:49.720Z,2.50
2022-08-03T01:11:23.930Z,2.90
2022-08-03T01:14:04.190Z,2.35
2022-08-03T01:16:57.129Z,3.10
2022-08-03T01:19:42.915Z,2.90
2022-08-03T01:22:23.967Z,2.58
2022-08-03T01:25:07.317Z,2.28
2022-08-03T01:27:48.633Z,2.70
2022-08-03T01:30:18.579Z,3.35
2022-08-03T01:33:01.091Z,3.00
2022-08-03T01:35:38.739Z,2.85
2022-08-03T01:38:12.670Z,2.70
2022-08-03T01:40:42.546Z,2.53
2022-08-03T01:43:14.432Z,2.50
2022-08-03T01:46:04.800Z,2.80
2022-08-03T01:48:33.534Z,2.60
2022-08-03T01:51:02.247Z,2.45
2022-08-03T01:53:32.663Z,2.80
2022-08-03T01:56:03.745Z,2.75
2022-08-03T01:58:33.511Z,3.28
2022-08-03T02:01:04.492Z,3.35
2022-08-03T02:03:35.177Z,3.15
2022-08-03T02:07:01.238Z,3.65
2022-08-03T02:08:54.790Z,3.50
2022-08-03T02:11:23.341Z,3.55
2022-08-03T02:13:52.807Z,3.90
2022-08-03T02:16:24.741Z,3.00
2022-08-03T02:18:55.174Z,3.20
2022-08-03T02:21:56.746Z,3.13
2022-08-03T02:24:12.795Z,5.32
2022-08-03T02:26:42.855Z,6.10
2022-08-03T02:29:15.405Z,5.70
2022-08-03T02:31:46.500Z,5.15
2022-08-03T02:34:15.997Z,5.10
2022-08-03T02:36:47.611Z,4.72
2022-08-03T02:39:19.165Z,4.72
2022-08-03T02:41:53.103Z,4.30
2022-08-03T02:44:26.267Z,4.20
2022-08-03T02:47:02.295Z,4.28
2022-08-03T02:49:35.361Z,4.63
2022-08-03T02:52:19.653Z,4.20
2022-08-03T02:54:50.437Z,4.38
2022-08-03T02:57:19.967Z,4.18
2022-08-03T02:59:48.835Z,3.63
2022-08-03T03:02:20.308Z,4.30
2022-08-03T03:05:50.559Z,4.60
2022-08-03T03:07:52.178Z,3.70
2022-08-03T03:10:25.904Z,4.28
2022-08-03T03:12:57.302Z,4.80
2022-08-03T03:15:27.101Z,5.22
2022-08-03T03:17:57.664Z,6.60
2022-08-03T03:20:30.646Z,6.68
2022-08-03T03:23:01.167Z,6.38
2022-08-03T03:25:31.778Z,6.25
2022-08-03T03:28:00.534Z,6.35
2022-08-03T03:30:30.044Z,6.03
2022-08-03T03:33:00.757Z,5.07
2022-08-03T03:35:29.555Z,5.20
2022-08-03T03:37:58.139Z,5.22
2022-08-03T03:40:26.445Z,5.00
2022-08-03T03:42:54.654Z,4.88
2022-08-03T03:45:23.232Z,4.75
2022-08-03T03:47:51.659Z,4.18
2022-08-03T03:50:23.558Z,4.80
2022-08-03T03:52:51.725Z,4.43
2022-08-03T03:55:21.837Z,5.00
2022-08-03T03:57:49.946Z,4.20
2022-08-03T04:00:19.803Z,5.22
2022-08-03T04:02:51.752Z,3.63
2022-08-03T04:05:42.916Z,4.25
2022-08-03T04:08:33.104Z,4.63
2022-08-03T04:11:12.833Z,3.83
2022-08-03T04:13:43.651Z,4.15
2022-08-03T04:16:15.828Z,3.88
2022-08-03T04:18:48.509Z,3.97
2022-08-03T04:21:20.962Z,5.10
2022-08-03T04:23:52.109Z,4.28
2022-08-03T04:26:22.733Z,4.45
2022-08-03T04:28:53.311Z,4.45
2022-08-03T04:31:24.267Z,4.70
2022-08-03T04:33:54.086Z,4.10
2022-08-03T04:36:26.851Z,3.67
2022-08-03T04:39:00.377Z,4.32
2022-08-03T04:41:29.517Z,3.65
2022-08-03T04:44:00.342Z,4.00
2022-08-03T04:46:33.955Z,4.20
2022-08-03T04:49:02.791Z,4.30
2022-08-03T04:51:34.793Z,4.13
2022-08-03T04:54:03.793Z,3.72
2022-08-03T04:56:32.386Z,3.92
2022-08-03T04:59:00.614Z,4.20
2022-08-03T05:01:32.776Z,4.00
2022-08-03T05:04:01.048Z,4.00
2022-08-03T05:06:29.142Z,4.45
2022-08-03T05:08:58.691Z,3.90
2022-08-03T05:11:27.240Z,4.60
2022-08-03T05:13:55.293Z,4.38
2022-08-03T05:16:23.653Z,4.20
2022-08-03T05:18:51.738Z,4.15
2022-08-03T05:21:19.915Z,3.63
2022-08-03T05:23:48.012Z,3.70
2022-08-03T05:26:18.519Z,3.92
2022-08-03T05:28:51.422Z,3.25
2022-08-03T05:31:22.337Z,3.58
2022-08-03T05:33:50.705Z,3.40
2022-08-03T05:36:18.816Z,3.30
2022-08-03T05:38:47.052Z,3.53
2022-08-03T05:41:22.724Z,3.70
2022-08-03T05:43:55.164Z,3.97
2022-08-03T05:46:24.375Z,3.20
2022-08-03T05:48:52.799Z,3.30
2022-08-03T05:51:21.202Z,3.15
2022-08-03T05:53:49.717Z,3.10
2022-08-03T05:56:18.007Z,3.22
2022-08-03T05:58:47.997Z,3.15
2022-08-03T06:01:18.377Z,3.08
2022-08-03T06:03:46.915Z,2.88
2022-08-03T06:06:15.282Z,2.90
2022-08-03T06:08:44.634Z,2.85
2022-08-03T06:11:12.937Z,3.17
2022-08-03T06:13:42.133Z,3.40
2022-08-03T06:16:11.208Z,3.20
2022-08-03T06:18:41.667Z,2.90
2022-08-03T06:21:15.562Z,3.25
2022-08-03T06:23:52.545Z,3.42
2022-08-03T06:26:28.771Z,3.78
2022-08-03T06:28:57.406Z,3.53
2022-08-03T06:31:33.054Z,3.30
2022-08-03T06:34:33.306Z,3.40
2022-08-03T06:36:53.357Z,3.35
2022-08-03T06:39:23.682Z,3.60
2022-08-03T06:41:53.555Z,3.47
2022-08-03T06:44:21.700Z,3.60
2022-08-03T06:46:50.037Z,3.50
2022-08-03T06:49:20.132Z,3.60
2022-08-03T06:52:05.109Z,3.60
2022-08-03T06:54:37.474Z,3.50
2022-08-03T06:57:06.689Z,3.35
2022-08-03T07:00:09.353Z,3.40
2022-08-03T07:02:23.685Z,3.53
2022-08-03T07:04:53.447Z,3.75
2022-08-03T07:07:21.828Z,3.65
2022-08-03T07:09:57.088Z,3.40
2022-08-03T07:12:27.748Z,3.70
2022-08-03T07:15:01.230Z,3.58
2022-08-03T07:17:31.447Z,5.50
2022-08-03T07:20:02.555Z,3.58
2022-08-03T07:22:30.727Z,3.65
2022-08-03T07:24:59.331Z,3.10
2022-08-03T07:27:28.791Z,3.40
2022-08-03T07:29:57.415Z,3.72
2022-08-03T07:32:26.165Z,3.60
2022-08-03T07:34:58.489Z,4.18
2022-08-03T07:37:30.857Z,3.33
2022-08-03T07:39:59.456Z,3.65
2022-08-03T07:42:28.255Z,3.70
2022-08-03T07:44:57.087Z,3.40
2022-08-03T07:47:34.848Z,3.45
2022-08-03T07:50:06.475Z,3.60
2022-08-03T07:52:51.856Z,3.72
2022-08-03T07:55:21.444Z,4.22
2022-08-03T07:58:04.796Z,3.47
2022-08-03T08:00:34.067Z,3.45
2022-08-03T08:03:02.583Z,3.78
2022-08-03T08:05:30.952Z,3.30
2022-08-03T08:08:00.649Z,3.95
2022-08-03T08:10:30.034Z,3.50
2022-08-03T08:12:58.642Z,3.40
2022-08-03T08:15:26.967Z,3.53
2022-08-03T08:17:56.633Z,3.15
2022-08-03T08:20:31.427Z,3.50
2022-08-03T08:25:32.952Z,3.00
2022-08-03T08:28:31.173Z,3.38
2022-08-03T08:30:51.982Z,3.30
2022-08-03T08:33:23.327Z,2.92
2022-08-03T08:35:54.323Z,3.47
2022-08-03T08:38:24.486Z,3.42
2022-08-03T08:40:53.252Z,2.85
2022-08-03T08:43:23.923Z,2.92
2022-08-03T08:45:57.601Z,3.20
2022-08-03T08:48:27.254Z,2.92
2022-08-03T08:50:56.756Z,2.97
2022-08-03T08:53:28.845Z,2.90
2022-08-03T08:56:01.648Z,2.78
2022-08-03T08:58:38.039Z,3.00
2022-08-03T09:01:07.463Z,3.50
2022-08-03T09:03:37.871Z,3.10
2022-08-03T09:06:06.879Z,3.03
2022-08-03T09:08:38.744Z,3.10
2022-08-03T09:11:07.626Z,2.90
2022-08-03T09:13:36.782Z,2.97
2022-08-03T09:16:13.879Z,2.92
2022-08-03T09:18:43.581Z,2.83
2022-08-03T09:21:30.685Z,3.03
2022-08-03T09:24:05.266Z,2.63
2022-08-03T09:26:36.456Z,2.75
2022-08-03T09:29:12.840Z,2.97
2022-08-03T09:31:43.913Z,2.83
2022-08-03T09:34:15.846Z,2.90
2022-08-03T09:36:46.558Z,2.60
2022-08-03T09:39:17.522Z,2.70
2022-08-03T09:41:47.451Z,2.70
2022-08-03T09:44:25.843Z,2.90
2022-08-03T09:46:56.139Z,2.78
2022-08-03T09:49:25.181Z,2.88
2022-08-03T09:52:32.222Z,2.83
2022-08-03T09:54:44.509Z,2.60
2022-08-03T09:57:24.043Z,2.42
2022-08-03T10:00:01.882Z,2.80
2022-08-03T10:02:42.127Z,2.67
2022-08-03T10:05:17.546Z,2.53
2022-08-03T10:07:49.656Z,2.58
2022-08-03T10:10:31.740Z,2.25
2022-08-03T10:13:02.258Z,2.42
2022-08-03T10:16:21.661Z,2.63
2022-08-03T10:18:19.471Z,2.53
2022-08-03T10:20:53.209Z,2.53
2022-08-03T10:23:22.643Z,2.43
2022-08-03T10:25:59.264Z,2.42
2022-08-03T10:28:35.010Z,2.63
2022-08-03T10:31:07.767Z,2.40
2022-08-03T10:33:49.552Z,2.67
2022-08-03T10:36:23.536Z,2.30
2022-08-03T10:38:53.989Z,2.30
2022-08-03T10:41:27.211Z,2.70
2022-08-03T10:43:59.942Z,2.10
2022-08-03T10:46:29.846Z,2.47
2022-08-03T10:48:59.625Z,2.30
2022-08-03T10:51:32.377Z,2.63
2022-08-03T10:54:02.103Z,2.60
2022-08-03T10:57:12.411Z,2.33
2022-08-03T11:00:07.498Z,3.03
2022-08-03T11:03:08.860Z,3.25
2022-08-03T11:05:43.836Z,2.97
2022-08-03T11:08:29.376Z,2.58
2022-08-03T11:11:01.839Z,3.15
2022-08-03T11:13:34.094Z,2.80
2022-08-03T11:16:21.890Z,2.70
2022-08-03T11:18:58.115Z,2.63
2022-08-03T11:21:59.885Z,2.65
2022-08-03T11:25:01.999Z,2.72
2022-08-03T11:27:33.549Z,2.45
2022-08-03T11:30:07.577Z,2.47
2022-08-03T11:33:01.454Z,2.30
2022-08-03T11:35:31.648Z,2.30
2022-08-03T11:38:10.970Z,2.58
2022-08-03T11:40:42.954Z,2.40
2022-08-03T11:43:34.908Z,2.47
2022-08-03T11:46:06.170Z,2.50
2022-08-03T11:48:37.478Z,2.72
2022-08-03T11:51:08.298Z,2.63
2022-08-03T11:53:41.730Z,2.60
2022-08-03T11:56:12.804Z,2.30
2022-08-03T11:59:01.264Z,2.92
2022-08-03T12:01:41.868Z,2.78
2022-08-03T12:04:14.158Z,2.70
2022-08-03T12:06:55.566Z,2.22
2022-08-03T12:09:24.006Z,3.33
2022-08-03T12:11:56.149Z,2.53
2022-08-03T12:14:49.019Z,2.63
2022-08-03T12:17:20.635Z,2.72
2022-08-03T12:19:49.236Z,2.45
2022-08-03T12:22:18.001Z,2.47
2022-08-03T12:24:47.570Z,2.45
2022-08-03T12:27:24.626Z,2.80
2022-08-03T12:29:58.142Z,2.30
2022-08-03T12:32:29.712Z,2.35
2022-08-03T12:35:01.066Z,2.22
2022-08-03T12:37:32.985Z,2.40
2022-08-03T12:40:10.168Z,2.10
2022-08-03T12:42:40.652Z,2.35
2022-08-03T12:45:22.715Z,2.50
2022-08-03T12:47:54.926Z,2.25
2022-08-03T12:50:31.308Z,2.08
2022-08-03T12:53:03.555Z,2.03
2022-08-03T12:55:56.388Z,2.25
2022-08-03T12:58:34.564Z,2.33
2022-08-03T13:01:10.294Z,2.03
2022-08-03T13:03:49.602Z,2.20
2022-08-03T13:06:20.542Z,1.98
2022-08-03T13:08:49.643Z,2.45
2022-08-03T13:11:22.457Z,2.10
2022-08-03T13:13:51.273Z,2.25
2022-08-03T13:16:19.624Z,2.10
2022-08-03T13:18:51.738Z,2.20
2022-08-03T13:21:20.922Z,2.10
2022-08-03T13:23:49.071Z,2.20
2022-08-03T13:26:17.233Z,2.10
2022-08-03T13:28:45.349Z,1.98
2022-08-03T13:31:13.753Z,2.05
2022-08-03T13:33:43.030Z,2.20
2022-08-03T13:36:12.863Z,2.08
2022-08-03T13:38:41.096Z,2.10
2022-08-03T13:41:09.568Z,2.25
2022-08-03T13:43:40.221Z,2.17
2022-08-03T13:46:08.410Z,2.22
2022-08-03T13:48:37.561Z,2.30
2022-08-03T13:51:22.103Z,2.03
2022-08-03T13:53:53.608Z,2.17
2022-08-03T13:56:21.811Z,2.15
2022-08-03T13:58:50.096Z,2.35
2022-08-03T14:01:29.733Z,2.15
2022-08-03T14:04:15.866Z,2.40
2022-08-03T14:06:50.470Z,2.45
2022-08-03T14:09:20.009Z,2.22
2022-08-03T14:12:04.067Z,2.10
2022-08-03T14:14:36.820Z,2.53
2022-08-03T14:17:05.355Z,2.30
2022-08-03T14:19:33.794Z,2.75
2022-08-03T14:22:21.173Z,2.30
2022-08-03T14:24:52.284Z,2.22
2022-08-03T14:27:21.404Z,2.35
2022-08-03T14:29:49.894Z,2.42
2022-08-03T14:32:18.093Z,2.17
2022-08-03T14:34:46.312Z,2.28
2022-08-03T14:37:14.713Z,2.35
2022-08-03T14:40:00.260Z,2.40
2022-08-03T14:42:30.360Z,2.60
2022-08-03T14:45:03.463Z,2.35
2022-08-03T14:47:34.375Z,2.65
2022-08-03T14:50:36.115Z,2.47
2022-08-03T14:53:08.902Z,2.47
2022-08-03T14:55:38.047Z,3.03
2022-08-03T14:58:19.987Z,2.35
2022-08-03T15:00:50.550Z,2.55
2022-08-03T15:03:20.511Z,2.38
2022-08-03T15:05:48.965Z,2.38
2022-08-03T15:08:17.220Z,2.75
2022-08-03T15:10:45.716Z,2.30
2022-08-03T15:13:15.475Z,2.75
2022-08-03T15:15:43.939Z,2.30
2022-08-03T15:18:12.466Z,2.60
2022-08-03T15:20:45.833Z,2.30
2022-08-03T15:23:15.877Z,2.38
2022-08-03T15:26:32.048Z,2.22
2022-08-03T15:28:34.359Z,2.55
2022-08-03T15:31:05.665Z,2.58
2022-08-03T15:33:34.662Z,2.50
2022-08-03T15:36:04.158Z,2.60
2022-08-03T15:38:36.241Z,2.67
2022-08-03T15:41:04.546Z,2.13
2022-08-03T15:43:34.324Z,2.30
2022-08-03T15:46:28.615Z,2.30
2022-08-03T15:48:56.748Z,2.17
2022-08-03T15:51:25.224Z,2.20
2022-08-03T15:53:53.314Z,2.25
2022-08-03T15:56:25.468Z,2.40
2022-08-03T15:59:11.424Z,2.22
2022-08-03T16:01:42.559Z,2.17
2022-08-03T16:04:10.762Z,2.08
2022-08-03T16:06:39.291Z,2.17
2022-08-03T16:09:24.069Z,2.13
2022-08-03T16:11:56.892Z,2.40
2022-08-03T16:14:34.805Z,2.60
2022-08-03T16:17:08.215Z,2.75
2022-08-03T16:19:36.577Z,3.05
2022-08-03T16:22:06.964Z,3.05
2022-08-03T16:24:35.125Z,2.80
2022-08-03T16:27:06.154Z,3.72
2022-08-03T16:29:45.128Z,2.50
2022-08-03T16:32:13.536Z,2.72
2022-08-03T16:34:44.078Z,2.42
2022-08-03T16:37:37.107Z,2.20
2022-08-03T16:40:02.564Z,2.47
2022-08-03T16:42:30.924Z,2.80
2022-08-03T16:45:00.361Z,3.00
2022-08-03T16:47:28.759Z,2.65
2022-08-03T16:49:58.161Z,2.55
2022-08-03T16:52:28.086Z,2.22
2022-08-03T16:54:56.496Z,2.38
2022-08-03T16:57:58.153Z,2.33
2022-08-03T17:00:34.074Z,2.15
2022-08-03T17:03:18.803Z,2.20
2022-08-03T17:05:50.133Z,2.00
2022-08-03T17:08:26.440Z,2.30
2022-08-03T17:10:56.874Z,2.35
2022-08-03T17:13:27.602Z,2.60
2022-08-03T17:16:12.241Z,2.42
2022-08-03T17:18:48.256Z,2.20
2022-08-03T17:21:18.601Z,2.13
2022-08-03T17:23:56.049Z,2.88
2022-08-03T17:26:28.538Z,2.97
2022-08-03T17:29:11.096Z,2.58
2022-08-03T17:31:49.469Z,2.65
2022-08-03T17:34:18.914Z,2.30
2022-08-03T17:37:03.831Z,2.20
2022-08-03T17:39:57.627Z,2.25
2022-08-03T17:42:30.404Z,2.45
2022-08-03T17:45:07.135Z,2.10
2022-08-03T17:47:41.785Z,2.13
2022-08-03T17:50:24.341Z,2.33
2022-08-03T17:52:57.219Z,2.08
2022-08-03T17:55:54.863Z,2.10
2022-08-03T17:58:24.223Z,2.08
2022-08-03T18:02:04.348Z,2.35
2022-08-03T18:04:10.719Z,2.33
2022-08-03T18:06:55.744Z,1.88
2022-08-03T18:10:05.183Z,1.73
2022-08-03T18:12:27.307Z,2.33
2022-08-03T18:15:01.128Z,1.73
2022-08-03T18:17:55.393Z,1.70
2022-08-03T18:20:32.774Z,1.55
2022-08-03T18:23:08.339Z,1.30
2022-08-03T18:25:45.580Z,1.70
2022-08-03T18:28:23.162Z,2.00
2022-08-03T18:34:16.523Z,1.75
2022-08-03T18:36:40.005Z,2.15
2022-08-03T18:39:11.821Z,1.50
2022-08-03T18:41:42.123Z,1.30
2022-08-03T18:44:53.161Z,1.23
2022-08-03T18:47:20.308Z,1.30
2022-08-03T18:50:01.810Z,1.42
2022-08-03T18:55:33.147Z,1.65
2022-08-03T18:58:18.057Z,2.00
2022-08-03T19:02:00.087Z,1.40
2022-08-03T19:04:14.686Z,1.35
2022-08-03T19:06:47.216Z,1.63
2022-08-03T19:09:28.977Z,1.40
2022-08-03T19:12:11.059Z,1.42
2022-08-03T19:14:47.359Z,2.30
2022-08-03T19:17:21.306Z,1.60
2022-08-03T19:19:52.053Z,1.97
2022-08-03T19:22:21.723Z,1.50
2022-08-03T19:24:55.213Z,1.38
2022-08-03T19:27:26.910Z,1.50
2022-08-03T19:30:01.874Z,1.48
2022-08-03T19:32:34.112Z,1.55
2022-08-03T19:35:04.661Z,1.55
2022-08-03T19:37:45.490Z,1.40
2022-08-03T19:40:15.326Z,1.75
2022-08-03T19:42:51.491Z,1.48
2022-08-03T19:45:52.695Z,1.55
2022-08-03T19:48:22.187Z,1.73
2022-08-03T19:50:54.291Z,1.42
2022-08-03T19:53:35.434Z,1.30
2022-08-03T19:56:09.075Z,1.40
2022-08-03T19:58:39.045Z,1.45
2022-08-03T20:01:21.159Z,1.40
2022-08-03T20:03:51.788Z,1.20
2022-08-03T20:06:23.652Z,1.30
2022-08-03T20:08:52.482Z,1.42
2022-08-03T20:11:28.728Z,1.45
2022-08-03T20:13:58.757Z,1.00
2022-08-03T20:16:28.212Z,1.15
2022-08-03T20:18:56.794Z,1.30
2022-08-03T20:21:28.505Z,1.20
2022-08-03T20:24:23.679Z,1.60
2022-08-03T20:26:55.348Z,1.20
2022-08-03T20:30:05.131Z,1.63
2022-08-03T20:32:24.687Z,1.70
2022-08-03T20:34:53.398Z,1.40
2022-08-03T20:37:21.665Z,1.30
2022-08-03T20:39:50.058Z,1.50
2022-08-03T20:42:21.560Z,1.50
2022-08-03T20:45:06.368Z,1.50
2022-08-03T20:47:50.979Z,1.65
2022-08-03T20:50:22.131Z,1.38
2022-08-03T20:52:51.007Z,1.30
2022-08-03T20:58:10.820Z,1.45
2022-08-03T21:00:42.233Z,1.60
2022-08-03T21:03:11.494Z,1.70
2022-08-03T21:05:51.094Z,1.30
2022-08-03T21:08:21.499Z,1.77
2022-08-03T21:10:52.956Z,2.15
2022-08-03T21:12:58.149Z,1.80
2022-08-03T21:13:00.669Z,1.60
2022-08-03T21:13:14.224Z,1.20
2022-08-03T21:13:27.561Z,2.30
2022-08-03T21:16:12.686Z,2.15
2022-08-03T21:18:46.932Z,3.00
2022-08-03T21:21:17.162Z,2.63
2022-08-03T21:23:49.152Z,3.50
2022-08-03T21:26:18.631Z,2.88
2022-08-03T21:28:49.687Z,2.70
2022-08-03T21:31:24.387Z,2.53
2022-08-03T21:33:56.661Z,2.58
2022-08-03T21:36:26.472Z,2.78
2022-08-03T21:38:57.544Z,1.70
2022-08-03T21:41:27.052Z,1.80
2022-08-03T21:43:57.139Z,1.77
2022-08-03T21:46:27.908Z,2.00
2022-08-03T21:50:04.710Z,1.80
2022-08-03T21:51:52.741Z,1.77
2022-08-03T21:54:21.809Z,1.58
2022-08-03T21:56:53.925Z,1.75
2022-08-03T21:59:24.799Z,1.90
2022-08-03T22:01:58.531Z,1.50
2022-08-03T22:04:50.375Z,1.70
2022-08-03T22:07:16.238Z,1.80
2022-08-03T22:09:51.221Z,1.73
2022-08-03T22:15:01.242Z,2.00
2022-08-03T22:17:55.571Z,2.20
2022-08-03T22:20:20.658Z,2.63
2022-08-03T22:22:55.776Z,1.90
2022-08-03T22:25:29.370Z,2.00
2022-08-03T22:27:59.019Z,1.80
2022-08-03T22:30:29.541Z,2.05
2022-08-03T22:32:59.023Z,1.90
2022-08-03T22:35:28.754Z,1.73
2022-08-03T22:37:58.577Z,1.70
2022-08-03T22:40:27.802Z,1.80
2022-08-03T22:42:56.372Z,1.70
2022-08-03T22:45:45.868Z,1.60
2022-08-03T22:48:17.990Z,1.92
2022-08-03T22:50:47.373Z,2.20
2022-08-03T22:53:20.641Z,1.80
2022-08-03T22:55:50.408Z,1.65
2022-08-03T22:58:20.911Z,2.00
2022-08-03T23:00:54.133Z,1.80
2022-08-03T23:03:26.124Z,1.90
2022-08-03T23:06:16.361Z,1.75
2022-08-03T23:08:48.089Z,2.25
2022-08-03T23:11:21.667Z,2.10
2022-08-03T23:13:54.026Z,1.90
2022-08-03T23:16:28.934Z,1.88
2022-08-03T23:19:16.748Z,2.05
2022-08-03T23:21:59.649Z,2.05
2022-08-03T23:24:31.309Z,1.92
2022-08-03T23:26:59.485Z,1.77
2022-08-03T23:29:30.153Z,2.40
2022-08-03T23:31:59.440Z,2.25
2022-08-03T23:34:48.842Z,2.40
2022-08-03T23:37:17.799Z,2.20
2022-08-03T23:39:50.253Z,2.30
2022-08-03T23:42:21.363Z,2.72
2022-08-03T23:44:55.670Z,3.05
2022-08-03T23:47:24.466Z,2.53
2022-08-03T23:50:13.819Z,2.10
2022-08-03T23:52:51.354Z,2.33
2022-08-03T23:55:30.867Z,1.85
2022-08-03T23:58:05.008Z,1.95
